Time,TemperatureF,DewpointF,PressureIn,WindDirection,WindDirectionDegrees,WindSpeedMPH,WindSpeedGustMPH,Humidity,HourlyPrecipIn,Conditions,Clouds,dailyrainin,SoftwareType,DateUTC
2013-07-21 00:01:00,54.0,47.0,-100.00,SSE,155,8.0,15.0,77,-99.99,,,-99.99,,2013-07-21 06:01:00,
2013-07-21 00:42:00,52.0,47.0,-100.00,SE,135,13.0,16.0,81,-99.99,,,-99.99,,2013-07-21 06:42:00,
2013-07-21 00:52:00,52.0,47.0,-100.00,SE,145,10.0,16.0,82,-99.99,,,-99.99,,2013-07-21 06:52:00,
2013-07-21 01:01:00,52.0,47.0,-100.00,SSE,155,7.0,14.0,84,-99.99,,,-99.99,,2013-07-21 07:01:00,
2013-07-21 01:11:00,51.0,47.0,-100.00,SSE,160,8.0,11.0,87,-99.99,,,-99.99,,2013-07-21 07:11:00,
2013-07-21 01:43:00,50.0,48.0,-100.00,South,180,11.0,12.0,94,-99.99,,,-99.99,,2013-07-21 07:43:00,
2013-07-21 02:01:00,49.0,48.0,-100.00,South,175,6.0,7.0,94,-99.99,,,-99.99,,2013-07-21 08:01:00,
2013-07-21 02:11:00,49.0,48.0,-100.00,South,185,4.0,6.0,95,-99.99,,,-99.99,,2013-07-21 08:11:00,
2013-07-21 02:33:00,53.0,49.0,-100.00,East,85,0.0,4.0,87,-99.99,,,-99.99,,2013-07-21 08:33:00,
2013-07-21 02:43:00,52.0,49.0,-100.00,North,350,1.0,5.0,88,-99.99,,,-99.99,,2013-07-21 08:43:00,
2013-07-21 02:52:00,52.0,49.0,-100.00,SSE,160,1.0,2.0,89,-99.99,,,-99.99,,2013-07-21 08:52:00,
2013-07-21 03:02:00,53.0,50.0,-100.00,East,80,4.0,6.0,87,-99.99,,,-99.99,,2013-07-21 09:02:00,
2013-07-21 03:12:00,53.0,49.0,-100.00,East,80,7.0,7.0,87,-99.99,,,-99.99,,2013-07-21 09:12:00,
2013-07-21 03:32:00,55.0,49.0,-100.00,East,90,6.0,6.0,81,-99.99,,,-99.99,,2013-07-21 09:32:00,
2013-07-21 03:42:00,56.0,49.0,-100.00,East,85,6.0,7.0,78,-99.99,,,-99.99,,2013-07-21 09:42:00,
2013-07-21 04:32:00,56.0,49.0,-100.00,South,180,1.0,2.0,75,-99.99,,,-99.99,,2013-07-21 10:32:00,
2013-07-21 04:43:00,56.0,49.0,-100.00,SE,130,0.0,2.0,76,-99.99,,,-99.99,,2013-07-21 10:43:00,
2013-07-21 05:02:00,56.0,48.0,-100.00,ESE,120,3.0,3.0,75,-99.99,,,-99.99,,2013-07-21 11:02:00,
2013-07-21 05:12:00,55.0,48.0,-100.00,SE,130,4.0,5.0,77,-99.99,,,-99.99,,2013-07-21 11:12:00,
2013-07-21 05:43:00,55.0,46.0,-100.00,ESE,120,2.0,4.0,71,-99.99,,,-99.99,,2013-07-21 11:43:00,
2013-07-21 05:52:00,54.0,48.0,-100.00,ESE,105,2.0,6.0,78,-99.99,,,-99.99,,2013-07-21 11:52:00,
2013-07-21 06:01:00,54.0,47.0,-100.00,SE,125,1.0,4.0,78,-99.99,,,-99.99,,2013-07-21 12:01:00,
2013-07-21 06:11:00,56.0,42.0,-100.00,West,260,3.0,6.0,60,-99.99,,,-99.99,,2013-07-21 12:11:00,
2013-07-21 06:32:00,60.0,35.0,-100.00,WNW,300,7.0,12.0,38,-99.99,,,-99.99,,2013-07-21 12:32:00,
2013-07-21 06:43:00,61.0,34.0,-100.00,WNW,290,12.0,16.0,36,-99.99,,,-99.99,,2013-07-21 12:43:00,
2013-07-21 07:42:00,62.0,35.0,-100.00,NW,315,10.0,14.0,36,-99.99,,,-99.99,,2013-07-21 13:42:00,
2013-07-21 08:01:00,64.0,36.0,-100.00,NW,305,11.0,14.0,34,-99.99,,,-99.99,,2013-07-21 14:01:00,
2013-07-21 08:12:00,65.0,37.0,-100.00,NW,305,11.0,14.0,34,-99.99,,,-99.99,,2013-07-21 14:12:00,
2013-07-21 08:43:00,68.0,36.0,-100.00,WNW,285,16.0,19.0,30,-99.99,,,-99.99,,2013-07-21 14:43:00,
2013-07-21 09:02:00,68.0,35.0,-100.00,WNW,290,15.0,19.0,29,-99.99,,,-99.99,,2013-07-21 15:02:00,
2013-07-21 09:11:00,69.0,36.0,-100.00,WNW,295,14.0,17.0,29,-99.99,,,-99.99,,2013-07-21 15:11:00,
2013-07-21 09:22:00,69.0,36.0,-100.00,NW,310,12.0,17.0,29,-99.99,,,-99.99,,2013-07-21 15:22:00,
2013-07-21 09:32:00,70.0,38.0,-100.00,NW,305,10.0,15.0,31,-99.99,,,-99.99,,2013-07-21 15:32:00,
2013-07-21 09:43:00,71.0,39.0,-100.00,NW,325,11.0,14.0,30,-99.99,,,-99.99,,2013-07-21 15:43:00,
2013-07-21 09:53:00,71.0,39.0,-100.00,NW,320,10.0,14.0,30,-99.99,,,-99.99,,2013-07-21 15:53:00,
2013-07-21 10:11:00,72.0,39.0,-100.00,NNW,330,9.0,12.0,29,-99.99,,,-99.99,,2013-07-21 16:11:00,
2013-07-21 10:32:00,74.0,40.0,-100.00,WNW,285,6.0,13.0,29,-99.99,,,-99.99,,2013-07-21 16:32:00,
2013-07-21 10:43:00,75.0,40.0,-100.00,NW,310,7.0,11.0,27,-99.99,,,-99.99,,2013-07-21 16:43:00,
2013-07-21 11:02:00,76.0,39.0,-100.00,NNW,345,9.0,12.0,26,-99.99,,,-99.99,,2013-07-21 17:02:00,
2013-07-21 11:11:00,77.0,39.0,-100.00,NW,320,8.0,12.0,25,-99.99,,,-99.99,,2013-07-21 17:11:00,
2013-07-21 13:01:00,78.0,46.0,-100.00,North,0,9.0,17.0,33,-99.99,,,-99.99,,2013-07-21 19:01:00,
2013-07-21 13:11:00,79.0,43.0,-100.00,North,0,9.0,21.0,27,-99.99,,,-99.99,,2013-07-21 19:11:00,
2013-07-21 13:42:00,78.0,38.0,-100.00,NNW,330,21.0,26.0,23,-99.99,,,-99.99,,2013-07-21 19:42:00,
2013-07-21 14:01:00,78.0,37.0,-100.00,NW,315,17.0,25.0,22,-99.99,,,-99.99,,2013-07-21 20:01:00,
2013-07-21 14:11:00,79.0,36.0,-100.00,NW,305,15.0,28.0,21,-99.99,,,-99.99,,2013-07-21 20:11:00,
2013-07-21 14:42:00,81.0,36.0,-100.00,NW,320,17.0,24.0,20,-99.99,,,-99.99,,2013-07-21 20:42:00,
2013-07-21 15:01:00,81.0,36.0,-100.00,NW,325,16.0,26.0,19,-99.99,,,-99.99,,2013-07-21 21:01:00,
2013-07-21 15:11:00,82.0,37.0,-100.00,WNW,295,11.0,18.0,19,-99.99,,,-99.99,,2013-07-21 21:11:00,
2013-07-21 23:02:00,66.0,41.0,-100.00,WNW,285,7.0,7.0,40,-99.99,,,-99.99,,2013-07-22 05:02:00,
2013-07-21 23:32:00,67.0,36.0,-100.00,West,280,9.0,9.0,31,-99.99,,,-99.99,,2013-07-22 05:32:00,
2013-07-21 23:42:00,67.0,34.0,-100.00,West,275,9.0,11.0,30,-99.99,,,-99.99,,2013-07-22 05:42:00,
2013-07-21 23:52:00,66.0,32.0,-100.00,West,275,10.0,11.0,28,-99.99,,,-99.99,,2013-07-22 05:52:00,